Time;durP1;ratioP1;P1;durP2;ratioP2;P2;SDS_P1;SDS_P2;PMS_P1;PMS_P2;Temp;Humidity;BMP_temperature;BMP_pressure;BME280_temperature;BME280_humidity;BME280_pressure;Samples;Min_cycle;Max_cycle;Signal;HPM_P1;HPM_P2
2022/12/30 00:01:45;;;;;;;37.35;5.03;;;;;;;11.39;100.00;97689.84;5005738;28;20068;-54
2022/12/30 00:04:10;;;;;;;30.70;4.05;;;;;;;11.09;100.00;97689.28;5006268;28;20368;-53
2022/12/30 00:06:36;;;;;;;41.83;5.50;;;;;;;11.25;100.00;97690.00;5008698;28;20034;-54
2022/12/30 00:09:01;;;;;;;40.97;5.07;;;;;;;11.44;100.00;97693.25;5008475;28;20029;-53
2022/12/30 00:11:29;;;;;;;36.10;4.50;;;;;;;11.09;100.00;97697.09;5003880;28;20626;-53
2022/12/30 00:33:58;;;;;;;26.25;3.50;;;;;;;9.90;100.00;97709.22;5010914;28;20178;-53
2022/12/30 00:36:25;;;;;;;24.33;3.05;;;;;;;9.46;100.00;97705.94;5010981;28;20053;-54
2022/12/30 00:38:51;;;;;;;39.55;4.13;;;;;;;9.59;100.00;97708.50;5009360;28;20136;-53
2022/12/30 00:44:00;;;;;;;33.63;3.97;;;;;;;9.46;100.00;97718.91;5006532;28;22083;-52
2022/12/30 00:46:26;;;;;;;34.45;4.05;;;;;;;9.33;100.00;97712.91;5006460;28;20038;-53
2022/12/30 00:57:04;;;;;;;43.35;4.35;;;;;;;9.49;100.00;97707.66;5007096;28;20045;-52
2022/12/30 00:59:29;;;;;;;48.38;4.97;;;;;;;9.14;100.00;97711.22;5009644;28;20026;-53
2022/12/30 01:01:54;;;;;;;35.60;4.03;;;;;;;9.19;100.00;97720.72;5006364;28;20830;-52
2022/12/30 01:04:20;;;;;;;34.42;3.90;;;;;;;9.54;100.00;97720.63;5007675;28;20025;-53
2022/12/30 01:06:45;;;;;;;32.67;3.85;;;;;;;9.46;100.00;97724.09;5009199;28;20037;-53
2022/12/30 01:09:11;;;;;;;31.98;3.78;;;;;;;9.59;100.00;97726.66;5009863;28;20032;-55
2022/12/30 01:11:36;;;;;;;31.88;3.95;;;;;;;9.53;100.00;97737.94;5006990;28;20033;-52
2022/12/30 01:14:02;;;;;;;27.73;3.80;;;;;;;10.27;100.00;97735.84;5010151;28;20059;-53
2022/12/30 01:16:27;;;;;;;24.27;3.22;;;;;;;9.80;100.00;97736.09;5007028;28;20619;-52
2022/12/30 01:18:52;;;;;;;34.17;4.03;;;;;;;9.32;100.00;97741.47;5010005;28;20052;-53
2022/12/30 01:21:18;;;;;;;31.30;3.75;;;;;;;9.37;100.00;97750.97;5009618;28;20408;-52
2022/12/30 01:23:43;;;;;;;31.42;3.85;;;;;;;9.22;100.00;97756.19;5007868;28;20522;-52
2022/12/30 01:26:09;;;;;;;29.63;3.50;;;;;;;9.44;100.00;97766.50;5007581;28;20136;-52
2022/12/30 01:28:36;;;;;;;32.42;3.60;;;;;;;9.61;100.00;97762.13;5009539;28;20057;-54
2022/12/30 01:31:11;;;;;;;36.65;4.07;;;;;;;9.28;100.00;97761.34;5005948;28;20160;-54
2022/12/30 01:33:37;;;;;;;32.72;3.63;;;;;;;9.16;100.00;97756.19;5007937;28;20467;-53
2022/12/30 01:36:04;;;;;;;34.10;3.83;;;;;;;9.36;100.00;97761.34;5008773;28;20277;-53
2022/12/30 01:38:31;;;;;;;29.88;3.63;;;;;;;9.56;100.00;97760.41;5008437;28;20527;-52
2022/12/30 01:40:57;;;;;;;39.22;4.47;;;;;;;9.51;100.00;97760.44;5006917;28;20443;-54
2022/12/30 01:43:44;;;;;;;32.03;3.55;;;;;;;9.73;100.00;97770.75;5008808;28;20057;-55
2022/12/30 01:46:16;;;;;;;32.13;3.60;;;;;;;9.83;100.00;97776.78;5009097;28;20113;-56
2022/12/30 01:48:41;;;;;;;29.77;3.40;;;;;;;9.48;100.00;97776.03;5010437;28;20569;-53
2022/12/30 01:51:16;;;;;;;34.75;4.05;;;;;;;9.17;100.00;97782.13;5008137;28;20048;-52
2022/12/30 01:53:45;;;;;;;28.63;3.58;;;;;;;9.37;100.00;97786.44;5007999;28;20025;-52
2022/12/30 01:56:24;;;;;;;34.63;3.97;;;;;;;9.06;100.00;97800.28;5008748;28;20636;-53
2022/12/30 01:59:01;;;;;;;31.88;3.92;;;;;;;9.25;100.00;97798.53;5012163;28;20021;-52
2022/12/30 02:01:27;;;;;;;30.95;3.45;;;;;;;9.09;100.00;97799.41;5007503;28;20033;-52
2022/12/30 02:04:04;;;;;;;28.05;3.33;;;;;;;9.26;100.00;97802.03;5007489;28;20037;-52
2022/12/30 02:06:58;;;;;;;29.05;3.67;;;;;;;9.14;100.00;97808.09;5008083;28;20049;-53
2022/12/30 02:09:28;;;;;;;35.63;3.83;;;;;;;9.02;100.00;97814.13;5005367;28;20045;-52
2022/12/30 02:11:55;;;;;;;31.65;3.55;;;;;;;8.82;100.00;97811.53;5005305;28;20415;-52
2022/12/30 02:14:21;;;;;;;36.45;4.05;;;;;;;8.75;100.00;97815.84;5006418;28;20030;-53
2022/12/30 02:16:55;;;;;;;30.10;3.55;;;;;;;8.71;100.00;97821.88;5006446;28;20038;-52
2022/12/30 02:19:39;;;;;;;34.30;3.95;;;;;;;9.01;100.00;97824.53;5007713;28;20036;-52
2022/12/30 02:22:19;;;;;;;31.48;3.72;;;;;;;8.66;100.00;97829.69;5008366;28;20177;-53
2022/12/30 02:25:03;;;;;;;27.48;3.30;;;;;;;9.29;100.00;97824.50;5008365;28;20136;-53
2022/12/30 02:28:05;;;;;;;33.90;4.18;;;;;;;9.36;100.00;97828.84;5007277;28;20065;-52
2022/12/30 02:30:52;;;;;;;37.22;4.38;;;;;;;9.56;100.00;97838.31;5007479;28;20038;-54
2022/12/30 02:33:21;;;;;;;34.40;3.72;;;;;;;9.63;100.00;97837.44;5008086;28;20043;-52
2022/12/30 02:35:55;;;;;;;33.22;3.70;;;;;;;9.62;100.00;97833.97;5006227;28;20033;-52
2022/12/30 02:38:39;;;;;;;30.98;3.63;;;;;;;9.11;100.00;97832.31;5008413;28;20053;-52
2022/12/30 02:46:52;;;;;;;29.70;3.35;;;;;;;8.71;100.00;97822.75;5007205;28;20044;-52
2022/12/30 02:49:19;;;;;;;34.55;3.80;;;;;;;8.66;100.00;97831.41;5009572;28;20029;-52
2022/12/30 02:54:31;;;;;;;35.50;4.10;;;;;;;8.85;100.00;97835.75;5006358;28;20246;-55
2022/12/30 02:56:56;;;;;;;36.20;3.92;;;;;;;8.84;100.00;97836.59;5007152;28;20192;-55
2022/12/30 03:05:26;;;;;;;31.20;4.00;;;;;;;9.44;100.00;97845.28;5006485;28;20029;-52
2022/12/30 03:08:09;;;;;;;33.00;3.85;;;;;;;9.73;100.00;97853.88;4991011;28;20029;-53
2022/12/30 03:11:13;;;;;;;33.78;4.05;;;;;;;9.91;100.00;97855.53;4990067;28;20790;-53
2022/12/30 03:13:56;;;;;;;27.40;3.63;;;;;;;9.74;100.00;97859.06;5008000;28;20025;-53
2022/12/30 03:16:38;;;;;;;29.50;3.60;;;;;;;9.17;100.00;97856.53;5006461;28;20077;-53
2022/12/30 03:19:09;;;;;;;41.13;4.35;;;;;;;8.86;100.00;97867.72;5004562;28;20375;-54
2022/12/30 03:21:39;;;;;;;32.13;3.90;;;;;;;8.94;100.00;97866.00;5005472;28;20061;-53
2022/12/30 03:27:05;;;;;;;31.15;3.53;;;;;;;9.15;100.00;97882.47;5008607;28;20610;-52
2022/12/30 03:29:59;;;;;;;26.40;3.70;;;;;;;9.48;100.00;97885.94;5011119;28;20057;-54
2022/12/30 03:32:25;;;;;;;27.08;3.42;;;;;;;9.56;100.00;97879.84;5001943;28;20759;-53
2022/12/30 03:34:51;;;;;;;24.33;3.17;;;;;;;9.41;100.00;97883.31;5011582;28;20029;-52
2022/12/30 03:37:36;;;;;;;38.95;4.53;;;;;;;9.22;100.00;97885.94;5011558;28;20034;-53
2022/12/30 03:40:31;;;;;;;31.20;3.90;;;;;;;8.95;100.00;97903.19;5009121;28;20034;-52
2022/12/30 03:42:57;;;;;;;35.88;4.13;;;;;;;9.22;100.00;97897.19;5008319;28;20196;-52
2022/12/30 03:45:23;;;;;;;37.13;4.20;;;;;;;9.06;100.00;97891.09;5011222;28;21637;-51
2022/12/30 03:47:48;;;;;;;32.92;4.05;;;;;;;9.03;100.00;97887.63;5009235;28;20041;-51
2022/12/30 03:50:14;;;;;;;38.03;4.53;;;;;;;9.04;100.00;97890.25;5008605;28;20033;-51
2022/12/30 03:52:39;;;;;;;28.13;3.50;;;;;;;9.05;100.00;97891.13;4992422;28;20025;-51
2022/12/30 03:55:05;;;;;;;31.30;3.80;;;;;;;8.94;100.00;97891.94;5010915;28;20176;-51
2022/12/30 03:57:31;;;;;;;33.60;4.00;;;;;;;8.94;100.00;97886.75;5009824;28;20033;-52
2022/12/30 03:59:56;;;;;;;31.45;3.85;;;;;;;8.84;100.00;97898.84;5009430;28;20029;-51
2022/12/30 04:02:21;;;;;;;32.40;3.65;;;;;;;8.77;100.00;97893.66;4995641;28;20660;-51
2022/12/30 04:04:47;;;;;;;32.83;3.72;;;;;;;8.83;100.00;97904.03;5008767;28;20172;-51
2022/12/30 04:07:12;;;;;;;29.63;3.58;;;;;;;8.72;100.00;97909.19;5011317;28;20037;-52
2022/12/30 04:09:37;;;;;;;46.40;5.32;;;;;;;9.02;100.00;97897.13;4994257;28;20439;-52
2022/12/30 04:12:03;;;;;;;37.25;4.25;;;;;;;9.28;100.00;97895.44;5011098;28;20682;-52
2022/12/30 04:14:28;;;;;;;29.40;3.95;;;;;;;9.40;100.00;97899.78;5009648;28;20152;-52
2022/12/30 04:16:54;;;;;;;29.80;4.10;;;;;;;8.77;100.00;97911.78;5009481;28;20038;-52
2022/12/30 04:19:19;;;;;;;36.20;4.30;;;;;;;8.98;100.00;97898.00;5008806;28;20060;-52
2022/12/30 04:21:45;;;;;;;36.70;4.22;;;;;;;9.02;100.00;97910.13;5008144;28;20141;-52
2022/12/30 04:24:10;;;;;;;38.88;4.47;;;;;;;9.37;100.00;97913.63;5010898;28;20402;-53
2022/12/30 04:26:35;;;;;;;37.40;4.40;;;;;;;9.27;100.00;97912.75;5008214;28;20041;-52
2022/12/30 04:29:01;;;;;;;31.98;4.13;;;;;;;9.20;100.00;97914.47;5008620;28;20103;-51
2022/12/30 04:31:26;;;;;;;34.70;4.03;;;;;;;9.12;100.00;97908.41;5009698;28;20033;-53
2022/12/30 04:33:52;;;;;;;37.60;4.63;;;;;;;9.25;100.00;97912.75;5009379;28;20103;-51
2022/12/30 04:36:20;;;;;;;29.35;3.58;;;;;;;8.81;100.00;97926.50;5009852;28;20523;-52
2022/12/30 04:38:45;;;;;;;30.02;3.72;;;;;;;8.84;100.00;97927.38;5010093;28;20582;-53
2022/12/30 04:41:11;;;;;;;39.88;4.95;;;;;;;9.18;100.00;97918.81;5009084;28;20451;-52
2022/12/30 04:43:37;;;;;;;34.20;4.15;;;;;;;9.29;100.00;97925.72;5009481;28;20053;-52
2022/12/30 04:46:02;;;;;;;40.45;5.43;;;;;;;9.40;100.00;97928.31;5009551;28;20084;-52
2022/12/30 04:48:28;;;;;;;27.15;3.85;;;;;;;9.20;100.00;97937.81;5008414;28;20040;-52
2022/12/30 04:50:53;;;;;;;28.58;4.15;;;;;;;9.37;100.00;97932.66;5007903;28;20036;-53
2022/12/30 04:53:18;;;;;;;27.88;3.90;;;;;;;9.06;100.00;97931.75;5008754;28;20017;-51
2022/12/30 04:55:44;;;;;;;35.50;4.55;;;;;;;9.10;100.00;97936.94;5009131;28;20073;-52
2022/12/30 04:58:09;;;;;;;38.60;4.80;;;;;;;9.31;100.00;97919.66;5008885;28;20064;-51
2022/12/30 05:00:35;;;;;;;33.92;4.10;;;;;;;8.95;100.00;97921.34;5008968;28;20556;-53
2022/12/30 05:03:01;;;;;;;31.35;3.95;;;;;;;8.82;100.00;97912.66;5008954;28;20034;-52
2022/12/30 05:05:26;;;;;;;35.05;4.35;;;;;;;8.76;100.00;97918.69;5007957;28;20084;-53
2022/12/30 05:07:51;;;;;;;33.88;4.30;;;;;;;8.60;100.00;97917.78;5009084;28;20033;-52
2022/12/30 05:10:17;;;;;;;36.17;4.80;;;;;;;8.62;100.00;97913.50;5008662;28;20052;-52
2022/12/30 05:12:42;;;;;;;33.33;4.30;;;;;;;8.47;100.00;97922.91;5010348;28;20058;-52
2022/12/30 05:15:08;;;;;;;35.13;4.15;;;;;;;8.33;100.00;97924.56;5008120;28;20061;-52
2022/12/30 05:17:34;;;;;;;38.28;4.57;;;;;;;8.68;100.00;97926.47;5009501;28;20022;-51
2022/12/30 05:19:59;;;;;;;37.10;4.55;;;;;;;8.27;100.00;97916.75;5009774;28;20060;-52
2022/12/30 05:22:25;;;;;;;39.47;4.63;;;;;;;7.69;100.00;97925.06;5007866;28;20065;-52
2022/12/30 05:27:33;;;;;;;40.35;4.75;;;;;;;7.58;100.00;97924.13;5009382;28;20878;-51
2022/12/30 05:29:59;;;;;;;34.75;4.53;;;;;;;7.61;100.00;97929.31;4993716;28;20033;-51
2022/12/30 05:32:24;;;;;;;32.85;4.35;;;;;;;7.82;100.00;97925.16;5008681;28;20076;-54
2022/12/30 05:34:50;;;;;;;32.90;4.00;;;;;;;7.69;100.00;97930.25;5010249;28;20030;-52
2022/12/30 05:37:15;;;;;;;36.80;4.47;;;;;;;7.75;100.00;97934.59;4997870;28;20034;-52
2022/12/30 05:39:40;;;;;;;53.70;5.55;;;;;;;8.16;100.00;97930.53;5008717;28;20025;-54
2022/12/30 05:42:06;;;;;;;38.28;4.45;;;;;;;8.21;100.00;97934.00;5006485;28;20393;-52
2022/12/30 05:44:31;;;;;;;39.10;4.43;;;;;;;8.54;100.00;97925.56;5009063;28;20068;-52
2022/12/30 05:46:58;;;;;;;38.03;4.60;;;;;;;8.39;100.00;97944.47;5009064;28;20570;-51
2022/12/30 05:49:23;;;;;;;35.00;4.68;;;;;;;8.50;100.00;97942.78;5008473;28;20073;-51
2022/12/30 05:51:48;;;;;;;48.17;5.05;;;;;;;8.15;100.00;97952.13;5006491;28;20151;-52
2022/12/30 05:54:14;;;;;;;29.30;3.75;;;;;;;8.08;100.00;97961.59;5012018;28;20043;-52
2022/12/30 05:56:39;;;;;;;44.65;5.00;;;;;;;7.86;100.00;97964.88;5000187;28;20038;-52
2022/12/30 05:59:05;;;;;;;35.63;4.30;;;;;;;8.15;100.00;97966.78;5008554;28;20029;-52
2022/12/30 06:01:30;;;;;;;32.20;4.50;;;;;;;8.23;100.00;97972.88;5006905;28;20103;-51
2022/12/30 06:03:56;;;;;;;34.03;4.32;;;;;;;8.37;100.00;97980.75;5008298;28;20435;-51
2022/12/30 06:06:22;;;;;;;33.28;4.05;;;;;;;8.35;100.00;97974.66;5007464;28;20042;-51
2022/12/30 06:08:48;;;;;;;29.42;3.88;;;;;;;8.14;100.00;97988.38;5007151;28;20096;-54
2022/12/30 06:11:13;;;;;;;38.47;4.72;;;;;;;8.08;100.00;97994.38;5007480;28;20046;-52
2022/12/30 06:13:39;;;;;;;30.45;4.03;;;;;;;8.11;100.00;97998.72;5010002;28;20096;-52
2022/12/30 06:16:04;;;;;;;38.00;4.40;;;;;;;8.16;100.00;97999.59;5007006;28;20127;-51
2022/12/30 06:18:30;;;;;;;30.85;4.45;;;;;;;8.15;100.00;97992.69;5007925;28;20026;-52
2022/12/30 06:20:56;;;;;;;41.28;4.80;;;;;;;8.31;100.00;97991.06;5006353;28;20058;-53
2022/12/30 06:23:22;;;;;;;32.55;3.90;;;;;;;7.88;100.00;97989.94;5009162;28;20052;-51
2022/12/30 06:25:55;;;;;;;28.00;3.75;;;;;;;7.85;100.00;97978.69;5008530;28;20034;-52
2022/12/30 06:28:22;;;;;;;31.02;3.85;;;;;;;7.52;100.00;97973.25;5007093;28;20073;-51
2022/12/30 06:30:48;;;;;;;28.58;3.63;;;;;;;7.80;100.00;97976.91;5005934;28;20118;-52
2022/12/30 06:33:14;;;;;;;37.85;4.82;;;;;;;7.21;100.00;97978.13;5009685;28;20044;-53
2022/12/30 06:35:39;;;;;;;37.08;3.95;;;;;;;6.79;100.00;97968.19;5007952;28;20046;-52
2022/12/30 06:38:05;;;;;;;34.00;4.50;;;;;;;7.16;100.00;97971.19;5009267;28;20052;-52
2022/12/30 06:40:30;;;;;;;32.20;4.50;;;;;;;7.55;100.00;97970.69;5006217;28;20100;-52
2022/12/30 06:42:55;;;;;;;32.78;4.38;;;;;;;7.83;100.00;97970.88;5007772;28;20025;-52
2022/12/30 06:45:21;;;;;;;38.20;4.97;;;;;;;7.92;100.00;97975.28;5006210;28;20878;-53
2022/12/30 06:47:46;;;;;;;32.50;4.28;;;;;;;7.89;100.00;97986.50;5006315;28;20033;-53
2022/12/30 06:50:11;;;;;;;31.15;4.38;;;;;;;8.17;100.00;97985.81;5008330;28;20044;-52
2022/12/30 06:52:37;;;;;;;28.25;4.57;;;;;;;8.26;100.00;97992.75;5007839;28;20673;-52
2022/12/30 06:55:03;;;;;;;40.53;4.90;;;;;;;8.29;100.00;97990.19;5008879;28;20036;-52
2022/12/30 06:57:29;;;;;;;38.42;4.80;;;;;;;8.47;100.00;97990.28;5006101;28;20439;-52
2022/12/30 06:59:54;;;;;;;32.08;4.38;;;;;;;8.55;100.00;97981.72;5006533;28;20025;-52
2022/12/30 07:02:19;;;;;;;35.15;4.47;;;;;;;8.57;100.00;97983.47;5005980;28;20057;-53
2022/12/30 07:04:45;;;;;;;30.55;3.92;;;;;;;8.57;100.00;97983.47;5007242;28;20377;-54
2022/12/30 07:07:10;;;;;;;32.90;4.45;;;;;;;8.40;100.00;97983.38;5006620;28;20125;-53
2022/12/30 07:09:35;;;;;;;41.22;4.72;;;;;;;8.30;100.00;97986.75;5004910;28;20184;-52
2022/12/30 07:12:01;;;;;;;33.83;4.72;;;;;;;8.18;100.00;97987.53;5006543;28;20119;-52
2022/12/30 07:14:26;;;;;;;33.53;4.43;;;;;;;7.68;100.00;97993.22;5006813;28;20072;-53
2022/12/30 07:16:51;;;;;;;28.40;4.15;;;;;;;7.13;100.00;97996.19;5007411;28;20077;-53
2022/12/30 07:19:17;;;;;;;28.58;3.58;;;;;;;7.52;100.00;97996.53;5008532;28;20022;-52
2022/12/30 07:21:43;;;;;;;31.70;4.38;;;;;;;7.63;100.00;97989.75;5004574;28;20092;-53
2022/12/30 07:24:08;;;;;;;30.83;4.68;;;;;;;7.73;100.00;97984.63;5006682;28;20319;-52
2022/12/30 07:26:33;;;;;;;37.20;5.32;;;;;;;7.74;100.00;97986.38;5007406;28;20129;-51
2022/12/30 07:28:59;;;;;;;32.78;5.15;;;;;;;7.74;100.00;97982.06;5007610;28;20033;-52
2022/12/30 07:31:24;;;;;;;20.80;3.20;;;;;;;7.81;100.00;97988.16;5004999;28;20131;-52
2022/12/30 07:33:50;;;;;;;41.13;4.90;;;;;;;7.78;100.00;97995.88;5006718;28;20037;-52
2022/12/30 07:36:15;;;;;;;42.92;4.45;;;;;;;7.35;100.00;97994.66;5007142;28;20079;-54
2022/12/30 07:38:41;;;;;;;31.23;4.93;;;;;;;7.31;100.00;97992.88;5006276;28;20030;-53
2022/12/30 07:41:06;;;;;;;44.13;5.15;;;;;;;7.33;100.00;97996.38;5006339;28;20104;-53
2022/12/30 07:43:32;;;;;;;35.13;5.05;;;;;;;7.61;100.00;97994.03;5008506;28;20061;-54
2022/12/30 07:45:57;;;;;;;42.92;6.40;;;;;;;7.76;100.00;97992.44;5007789;28;20045;-54
2022/12/30 07:48:23;;;;;;;35.95;6.18;;;;;;;7.69;100.00;97984.59;5006796;28;20048;-56
2022/12/30 07:50:48;;;;;;;31.38;5.50;;;;;;;8.01;100.00;97985.69;5006438;28;20091;-53
2022/12/30 07:53:14;;;;;;;38.47;5.75;;;;;;;7.71;100.00;98002.75;5009290;28;20490;-53
2022/12/30 07:55:40;;;;;;;23.17;4.07;;;;;;;7.74;100.00;98007.06;5007665;28;20097;-53
2022/12/30 07:58:06;;;;;;;44.28;5.50;;;;;;;8.12;100.00;97998.72;5008422;28;20143;-53
2022/12/30 08:00:32;;;;;;;43.42;6.68;;;;;;;8.02;100.00;98007.31;5005664;28;20053;-54
2022/12/30 08:02:57;;;;;;;46.05;7.43;;;;;;;7.49;100.00;98006.84;5004554;28;20025;-55
2022/12/30 08:05:23;;;;;;;39.40;6.45;;;;;;;8.13;100.00;98000.47;5003564;28;20286;-54
2022/12/30 08:07:51;;;;;;;26.95;4.75;;;;;;;7.76;100.00;98007.97;5004952;28;20570;-56
2022/12/30 08:10:17;;;;;;;44.95;6.25;;;;;;;7.27;100.00;97998.88;5004494;28;20513;-54
2022/12/30 08:12:42;;;;;;;36.63;4.88;;;;;;;6.72;100.00;97997.44;5008498;28;20034;-54
2022/12/30 08:15:08;;;;;;;35.85;5.25;;;;;;;7.10;100.00;97996.13;5008364;28;20063;-53
2022/12/30 08:17:33;;;;;;;30.75;4.20;;;;;;;7.93;100.00;97992.56;5009920;28;20036;-54
2022/12/30 08:19:58;;;;;;;36.90;4.93;;;;;;;8.18;100.00;97987.53;5010141;28;20581;-54
2022/12/30 08:22:24;;;;;;;42.22;6.03;;;;;;;7.99;100.00;97986.56;5004545;28;20053;-55
2022/12/30 08:24:49;;;;;;;38.35;5.35;;;;;;;8.07;100.00;97990.06;4995359;28;20023;-53
2022/12/30 08:27:14;;;;;;;36.42;5.65;;;;;;;8.38;100.00;97997.19;5007981;28;20543;-54
2022/12/30 08:29:40;;;;;;;47.20;6.72;;;;;;;8.27;100.00;98002.25;5011701;28;20033;-55
2022/12/30 08:32:05;;;;;;;29.35;4.95;;;;;;;8.62;100.00;97999.06;5009334;28;20069;-56
2022/12/30 08:34:30;;;;;;;36.63;5.10;;;;;;;8.87;100.00;97999.13;5008361;28;20032;-54
2022/12/30 08:36:56;;;;;;;27.30;4.47;;;;;;;9.19;100.00;97995.78;5009511;28;20044;-53
2022/12/30 08:39:21;;;;;;;44.10;5.72;;;;;;;8.22;100.00;97999.66;5008310;28;20116;-55
2022/12/30 08:41:47;;;;;;;40.03;6.55;;;;;;;8.30;100.00;97998.00;5006860;28;20093;-55
2022/12/30 08:44:12;;;;;;;32.08;4.88;;;;;;;8.08;100.00;98004.75;5005181;28;20041;-54
2022/12/30 08:46:39;;;;;;;42.17;6.35;;;;;;;8.06;100.00;98003.88;5007270;28;20421;-53
2022/12/30 08:49:06;;;;;;;35.92;5.35;;;;;;;7.78;100.00;97998.47;5006689;28;20026;-54
2022/12/30 08:51:31;;;;;;;33.17;5.63;;;;;;;7.88;100.00;97994.25;5007608;28;20502;-54
2022/12/30 08:53:57;;;;;;;33.10;4.88;;;;;;;8.19;100.00;98004.81;5009713;28;20040;-53
2022/12/30 08:56:35;;;;;;;33.70;5.68;;;;;;;8.47;100.00;97994.63;5011012;28;20042;-53
2022/12/30 08:59:00;;;;;;;30.10;5.63;;;;;;;9.58;100.00;97992.38;5007972;28;20096;-54
2022/12/30 09:01:29;;;;;;;33.40;5.57;;;;;;;9.85;100.00;97986.34;5004443;28;20129;-55
2022/12/30 09:03:56;;;;;;;46.90;6.68;;;;;;;9.29;100.00;97988.91;5006138;28;20040;-54
2022/12/30 09:06:23;;;;;;;31.25;5.28;;;;;;;8.53;100.00;97993.81;5008451;28;20038;-53
2022/12/30 09:08:50;;;;;;;34.05;5.72;;;;;;;9.13;100.00;97990.56;5009639;28;20487;-53
2022/12/30 09:11:22;;;;;;;35.55;5.93;;;;;;;8.99;100.00;97993.13;5004578;28;20658;-56
2022/12/30 09:13:47;;;;;;;32.78;5.13;;;;;;;8.92;100.00;97984.47;5010038;28;20108;-54
2022/12/30 09:16:15;;;;;;;41.08;6.03;;;;;;;8.50;100.00;97980.81;4999678;28;20049;-54
2022/12/30 09:18:41;;;;;;;42.45;6.18;;;;;;;8.11;100.00;97971.09;5004382;28;20289;-53
2022/12/30 09:21:06;;;;;;;56.08;7.07;;;;;;;8.72;100.00;97977.47;4989107;28;20080;-55
2022/12/30 09:23:33;;;;;;;36.10;5.50;;;;;;;9.65;100.00;97968.13;5007149;28;20025;-55
2022/12/30 09:25:58;;;;;;;41.10;5.90;;;;;;;9.75;100.00;97974.19;5006729;28;20041;-53
2022/12/30 09:28:24;;;;;;;48.65;6.95;;;;;;;8.80;100.00;97972.31;5007005;28;20052;-53
2022/12/30 09:30:50;;;;;;;46.80;5.80;;;;;;;8.73;100.00;97992.16;5004675;28;20034;-53
2022/12/30 09:33:15;;;;;;;52.00;6.22;;;;;;;8.55;100.00;97989.50;5002328;28;20064;-53
2022/12/30 09:35:41;;;;;;;40.13;4.88;;;;;;;8.81;100.00;97997.41;5006312;28;20129;-52
2022/12/30 09:38:06;;;;;;;51.90;7.18;;;;;;;9.93;100.00;97994.09;5005003;28;20029;-52
2022/12/30 09:40:53;;;;;;;46.50;6.47;;;;;;;9.12;100.00;97994.03;5005520;28;20038;-53
2022/12/30 09:43:47;;;;;;;38.40;5.22;;;;;;;9.42;100.00;97994.94;5004151;28;20025;-54
2022/12/30 09:46:31;;;;;;;33.88;5.00;;;;;;;10.25;100.00;97989.75;5005762;28;20080;-55
2022/12/30 09:49:02;;;;;;;42.97;6.00;;;;;;;10.13;100.00;97983.69;5005000;28;20026;-52
2022/12/30 09:51:36;;;;;;;44.28;6.18;;;;;;;10.11;100.00;97993.22;5002544;28;20037;-54
2022/12/30 09:54:13;;;;;;;35.33;4.45;;;;;;;9.11;100.00;97995.78;5004266;28;20033;-53
2022/12/30 09:56:42;;;;;;;45.50;5.28;;;;;;;9.47;100.00;97982.00;5004380;28;20173;-53
2022/12/30 09:59:29;;;;;;;45.90;5.95;;;;;;;9.46;100.00;97969.84;5006601;28;20025;-54
2022/12/30 10:02:21;;;;;;;48.95;6.32;;;;;;;9.22;100.00;97966.38;5004298;28;20038;-54
2022/12/30 10:04:47;;;;;;;41.88;5.90;;;;;;;9.62;100.00;97957.75;5004480;28;20032;-55
2022/12/30 10:07:25;;;;;;;40.13;5.43;;;;;;;9.59;100.00;97953.44;5005734;28;20038;-54
2022/12/30 10:10:01;;;;;;;53.63;6.55;;;;;;;9.66;100.00;97943.91;5007059;28;20022;-54
2022/12/30 10:12:37;;;;;;;30.52;4.90;;;;;;;9.94;100.00;97936.06;5003926;28;20475;-54
2022/12/30 10:15:29;;;;;;;45.42;5.50;;;;;;;9.89;100.00;97930.03;5007303;28;20663;-54
2022/12/30 10:18:14;;;;;;;38.47;5.68;;;;;;;10.51;100.00;97916.03;5003300;28;20424;-55
2022/12/30 10:21:15;;;;;;;30.90;4.82;;;;;;;10.73;100.00;97913.31;5003913;28;20048;-54
2022/12/30 10:23:59;;;;;;;38.75;5.53;;;;;;;10.53;100.00;97912.53;5006340;28;20034;-54
2022/12/30 10:26:41;;;;;;;39.75;5.05;;;;;;;10.12;100.00;97918.72;5002652;28;20133;-56
2022/12/30 10:29:21;;;;;;;45.40;6.13;;;;;;;10.12;100.00;97906.59;5006408;28;20037;-55
2022/12/30 10:31:50;;;;;;;47.35;5.70;;;;;;;10.27;100.00;97908.28;5002691;28;20146;-55
2022/12/30 10:34:19;;;;;;;29.20;4.28;;;;;;;10.96;100.00;97904.50;5007678;28;20037;-54
2022/12/30 10:36:44;;;;;;;33.30;4.82;;;;;;;10.97;100.00;97898.44;5003498;28;20740;-54
2022/12/30 10:39:19;;;;;;;27.77;4.40;;;;;;;10.25;100.00;97897.00;5005075;28;20531;-56
2022/12/30 10:41:54;;;;;;;45.72;5.82;;;;;;;10.35;100.00;97894.41;4995251;28;20236;-56
2022/12/30 10:44:33;;;;;;;47.30;6.10;;;;;;;10.13;100.00;97897.03;5003829;28;20492;-54
2022/12/30 10:46:59;;;;;;;49.83;6.50;;;;;;;10.27;100.00;97874.50;5002042;28;20081;-55
2022/12/30 10:50:05;;;;;;;35.78;5.10;;;;;;;10.42;100.00;97870.97;5005520;28;20029;-55
2022/12/30 10:52:31;;;;;;;50.47;6.22;;;;;;;10.15;100.00;97866.75;5001333;28;20041;-55
2022/12/30 10:54:56;;;;;;;47.33;5.88;;;;;;;10.55;100.00;97863.97;5004350;28;20079;-54
2022/12/30 10:57:33;;;;;;;45.55;6.03;;;;;;;10.50;100.00;97852.75;5004627;28;20033;-54
2022/12/30 11:00:00;;;;;;;41.00;5.70;;;;;;;10.51;100.00;97854.47;4994532;28;20025;-55
2022/12/30 11:02:31;;;;;;;35.97;4.93;;;;;;;10.62;100.00;97854.41;5003259;28;20144;-54
2022/12/30 11:04:59;;;;;;;35.15;4.85;;;;;;;10.20;100.00;97851.97;5004741;28;20022;-55
2022/12/30 11:07:24;;;;;;;39.53;5.45;;;;;;;10.07;100.00;97845.09;5003797;28;20111;-55
2022/12/30 11:09:50;;;;;;;58.00;6.50;;;;;;;10.20;100.00;97841.59;5006072;28;20025;-53
2022/12/30 11:15:15;;;;;;;35.40;5.15;;;;;;;9.97;100.00;97834.75;5004337;28;20099;-53
2022/12/30 11:17:51;;;;;;;48.67;5.97;;;;;;;9.70;100.00;97836.56;5003886;28;20033;-52
2022/12/30 11:20:29;;;;;;;48.00;6.10;;;;;;;9.83;100.00;97826.16;5002938;28;20637;-54
2022/12/30 11:22:56;;;;;;;34.88;4.75;;;;;;;10.02;100.00;97827.81;5005494;28;20053;-56
2022/12/30 11:25:45;;;;;;;28.27;3.95;;;;;;;9.60;100.00;97816.66;5001679;28;20541;-55
2022/12/30 11:28:19;;;;;;;29.42;4.43;;;;;;;9.65;100.00;97817.50;5004360;28;20715;-55
2022/12/30 11:30:51;;;;;;;41.47;5.22;;;;;;;9.98;100.00;97820.88;5002267;28;20049;-54
2022/12/30 11:33:30;;;;;;;41.60;5.47;;;;;;;9.73;100.00;97818.34;5004356;28;20112;-55
2022/12/30 11:36:15;;;;;;;34.67;5.22;;;;;;;9.94;100.00;97810.53;5003016;28;20046;-54
2022/12/30 11:38:46;;;;;;;45.08;5.85;;;;;;;10.25;100.00;97806.03;5003886;28;20034;-54
2022/12/30 11:41:17;;;;;;;43.67;5.43;;;;;;;10.21;100.00;97811.28;5003707;28;20042;-54
2022/12/30 11:43:47;;;;;;;46.88;5.68;;;;;;;10.44;100.00;97808.59;5004055;28;20257;-53
2022/12/30 11:46:15;;;;;;;38.03;4.78;;;;;;;10.23;100.00;97814.72;5002379;28;20103;-53
2022/12/30 11:48:51;;;;;;;43.13;5.43;;;;;;;10.29;100.00;97812.94;5006807;28;20030;-54
2022/12/30 11:51:24;;;;;;;48.20;5.63;;;;;;;9.82;100.00;97806.22;5004289;28;20124;-53
2022/12/30 11:54:05;;;;;;;38.05;5.25;;;;;;;9.97;100.00;97807.91;5007371;28;20467;-54
2022/12/30 11:56:30;;;;;;;43.38;5.25;;;;;;;9.88;100.00;97803.63;5007727;28;20393;-57
2022/12/30 11:59:08;;;;;;;44.85;5.47;;;;;;;9.58;100.00;97805.44;5008459;28;20030;-57
2022/12/30 12:02:02;;;;;;;44.35;5.65;;;;;;;9.74;100.00;97796.75;5004014;28;20030;-54
2022/12/30 12:04:39;;;;;;;48.13;5.97;;;;;;;9.87;100.00;97783.69;5005282;28;20041;-57
2022/12/30 12:07:32;;;;;;;35.47;4.80;;;;;;;9.55;100.00;97785.53;5007740;28;20167;-58
2022/12/30 12:09:58;;;;;;;44.17;5.30;;;;;;;9.47;100.00;97795.91;4987494;28;20060;-55
2022/12/30 12:12:27;;;;;;;36.75;4.88;;;;;;;9.47;100.00;97787.28;5006246;28;20415;-56
2022/12/30 12:15:03;;;;;;;47.58;6.35;;;;;;;9.44;100.00;97790.75;5007519;28;20519;-56
2022/12/30 12:19:55;;;;;;;147.77;9.73;;;;;;;9.82;100.00;97791.50;5040372;28;20440;-55
2022/12/30 12:22:29;;;;;;;97.35;7.10;;;;;;;9.59;100.00;97799.38;5046460;28;20084;-55
2022/12/30 12:25:02;;;;;;;80.63;6.22;;;;;;;9.95;100.00;97797.50;5046012;28;20522;-53
2022/12/30 12:27:27;;;;;;;54.25;5.03;;;;;;;9.92;100.00;97800.13;5047900;28;20040;-56
2022/12/30 12:29:55;;;;;;;79.35;5.88;;;;;;;9.44;100.00;97795.94;5047640;28;20032;-55
2022/12/30 12:32:43;;;;;;;63.03;5.45;;;;;;;10.00;100.00;97806.16;5047114;28;20021;-55